Impacts TAF Board INFO
FOR SITUATIONAL AWARENESS. NOT TO BE USED FOR FLIGHT PLANNING PURPOSES.
IDs:

KGEG - Spokane Intl, WA, US

Issued at 0539 UTC 17 Oct 2017
Updated at 0921 UTC 17 Oct 2017
Potential Impact None Slight Moderate High
Time0853Z 17/10Z 17/11Z 17/12Z 17/13Z 17/14Z 17/15Z 17/16Z 17/17Z 17/18Z 17/19Z 17/20Z 17/21Z 17/22Z>>
Type OBS PRVL PRVL PRVL PRVL PRVL PRVL PRVL PRVL PRVL PRVL PRVL PRVL PRVL
VIS 10 >6 >6 >6 >6 >6 >6 >6 >6 >6 >6 >6 >6 >6
CIG -- -- -- -- 200 200 200 200 -- -- 80 80 80 80
Cover CLR FEW FEW FEW BKN BKN BKN BKN SCT SCT BKN BKN BKN BKN
FltCat VFR VFR VFR VFR VFR VFR VFR VFR VFR VFR VFR VFR VFR VFR
WX -- -- -- -- -- -- -- -- -- -- -- -- -- --
WDir 150 160 160 160 170 170 170 170 200 200 220 220 220 220
WSpd 8 8 8 8 10 10 10 10 18 18 28 28 28 28
WGst -- -- -- -- -- -- -- -- 32 32 44 44 44 44

Raw TAF
KGEG 170539Z 1706/1806 16008KT P6SM FEW200
  FM171300 17010KT P6SM SCT150 BKN200 WS020/23035KT
  FM171700 20018G32KT P6SM SCT150
  FM171900 22028G44KT P6SM BKN080 BKN150
  FM172300 22025G40KT 6SM HZ SCT100
  FM180200 24013G26KT 6SM HZ FEW200
  FM180400 24010G16KT P6SM SKC


Raw METAR
KGEG 170853Z 15008KT 10SM CLR 08/01 A3004 RMK AO2 SLP173 T00780006 58013 $
KGEG 170753Z 15008KT 10SM CLR 08/01 A3006 RMK AO2 SLP179 T00830006 401720017 $
KGEG 170653Z 15004KT 10SM CLR 08/01 A3008 RMK AO2 SLP186 T00780006 $

METAR Board
Radar Display
Forecast Discussion

FOR SITUATIONAL AWARENESS. NOT TO BE USED FOR FLIGHT PLANNING PURPOSES.